Springport, Indiana
Current Conditions -  °F | °C
As of 8:53 AM on Wednesday 28 Jan 2015 (Local Time) from KMIE Reporting Station
Haze Haze  
Wind Chill: 12°   Ceiling: Unl
Heat Index: 12°   Visibility: 3mi
Dew Point:   Wind: 3mph
Humidity: 88%   Direction: 150°SSE
Pressure: 30.34"   Gusts: NA
Location:  40.05°N, 85.39°W
Report Text: KMIE 281353Z 15003KT 3SM BR CLR M11/M13 A3034 RMK AO2 SLP289 I1001 T11111128
Loading
Personal Weather Stations






























Interactive Weather Map New forecast layout! Learn more

10-Day Weather Forecast

Advertisements
Track Severe Weather on mobile